Time;durP1;ratioP1;P1;durP2;ratioP2;P2;SDS_P1;SDS_P2;PMS_P1;PMS_P2;Temp;Humidity;BMP_temperature;BMP_pressure;BME280_temperature;BME280_humidity;BME280_pressure;Samples;Min_cycle;Max_cycle;Signal;HPM_P1;HPM_P2
2024/02/17 00:00:57;;;;;;;33.53;15.38;;;;;;;4.56;92.54;101044.59;5026481;28;20033;-79
2024/02/17 00:03:22;;;;;;;27.73;15.30;;;;;;;4.14;95.13;101029.44;5026671;28;20039;-79
2024/02/17 00:05:51;;;;;;;26.08;14.35;;;;;;;4.20;94.08;101034.94;5025385;28;20442;-79
2024/02/17 00:08:17;;;;;;;22.02;12.43;;;;;;;3.95;94.98;101023.34;5025525;28;20525;-79
2024/02/17 00:10:43;;;;;;;27.13;12.70;;;;;;;4.13;93.67;101035.72;5029193;28;20026;-79
2024/02/17 00:13:08;;;;;;;22.95;12.95;;;;;;;4.23;92.26;101034.63;5027123;28;20110;-80
2024/02/17 00:15:34;;;;;;;31.17;14.10;;;;;;;4.13;90.98;101002.22;5026395;28;20648;-79
2024/02/17 00:18:02;;;;;;;27.63;13.98;;;;;;;4.67;89.64;101051.44;5026647;28;20408;-79
2024/02/17 00:20:27;;;;;;;28.05;13.27;;;;;;;4.33;90.80;101054.81;5026208;28;20792;-79
2024/02/17 00:22:53;;;;;;;23.83;12.32;;;;;;;3.73;92.92;101015.91;5024994;28;20120;-79
2024/02/17 00:25:18;;;;;;;22.70;11.82;;;;;;;4.06;94.34;101042.56;5026960;28;20554;-80
2024/02/17 00:27:44;;;;;;;25.20;12.55;;;;;;;4.36;90.56;101055.34;5030158;28;20402;-79
2024/02/17 00:30:10;;;;;;;23.63;12.48;;;;;;;4.54;89.48;101059.78;5030667;28;20044;-79
2024/02/17 00:32:35;;;;;;;22.50;11.48;;;;;;;4.40;88.80;101037.41;5028802;28;20025;-79
2024/02/17 00:35:01;;;;;;;24.08;13.85;;;;;;;4.37;88.98;101045.59;5030440;28;20035;-79
2024/02/17 00:37:26;;;;;;;22.75;11.18;;;;;;;3.65;94.70;101040.38;5044251;28;20425;-80
2024/02/17 00:39:51;;;;;;;33.33;16.02;;;;;;;3.57;94.47;101025.28;5043503;28;20505;-79
2024/02/17 00:42:17;;;;;;;21.00;11.13;;;;;;;3.80;93.44;101038.03;5029999;28;20486;-79
2024/02/17 00:44:42;;;;;;;24.88;11.95;;;;;;;3.98;93.87;101051.25;5030192;28;20033;-79
2024/02/17 00:47:08;;;;;;;22.55;11.55;;;;;;;4.01;92.31;101041.22;5030266;28;20052;-79
2024/02/17 00:49:33;;;;;;;24.13;13.65;;;;;;;4.11;91.44;101045.59;5029762;28;20032;-79
2024/02/17 00:51:58;;;;;;;26.80;12.98;;;;;;;3.89;91.94;101047.72;5028931;28;20041;-79
2024/02/17 00:54:24;;;;;;;24.13;12.90;;;;;;;4.05;90.93;101035.66;5028373;28;20494;-80
2024/02/17 00:56:50;;;;;;;32.53;14.07;;;;;;;3.47;89.89;101029.81;5030442;28;20447;-80
2024/02/17 00:59:16;;;;;;;26.55;13.90;;;;;;;2.71;95.15;101022.97;5030061;28;20048;-79
2024/02/17 01:01:43;;;;;;;29.98;14.85;;;;;;;2.14;95.78;101022.13;5028330;28;20478;-79
2024/02/17 01:04:08;;;;;;;29.65;13.18;;;;;;;1.92;99.45;101013.59;5029451;28;20022;-80
2024/02/17 01:06:34;;;;;;;26.23;12.90;;;;;;;1.65;100.00;100984.50;5029857;28;20098;-80
2024/02/17 01:08:59;;;;;;;23.30;12.35;;;;;;;1.76;100.00;101015.94;5028627;28;20022;-79
2024/02/17 01:11:24;;;;;;;23.88;12.32;;;;;;;1.74;100.00;101015.25;5028582;28;20030;-80
2024/02/17 01:13:50;;;;;;;23.85;13.48;;;;;;;1.86;100.00;100998.34;5029853;28;20032;-79
2024/02/17 01:16:15;;;;;;;21.83;12.40;;;;;;;1.98;100.00;101022.69;5029203;28;20442;-79
2024/02/17 01:18:42;;;;;;;26.25;14.95;;;;;;;2.37;100.00;101020.84;5029430;28;20046;-79
2024/02/17 01:21:08;;;;;;;23.92;12.30;;;;;;;2.53;100.00;101037.84;5029379;28;20045;-80
2024/02/17 01:23:33;;;;;;;24.88;13.90;;;;;;;2.34;100.00;101044.81;5028425;28;20026;-80
2024/02/17 01:25:59;;;;;;;21.95;11.68;;;;;;;2.10;100.00;101016.31;5028038;28;20044;-80
2024/02/17 01:28:24;;;;;;;23.17;12.40;;;;;;;1.63;100.00;101025.88;5029336;28;20037;-78
2024/02/17 01:30:49;;;;;;;23.30;12.52;;;;;;;2.00;100.00;101013.72;5029011;28;20029;-79
2024/02/17 01:33:15;;;;;;;25.25;13.27;;;;;;;2.27;100.00;101020.06;5029905;28;20528;-79
2024/02/17 01:35:41;;;;;;;24.70;12.90;;;;;;;1.93;100.00;100999.44;5028007;28;20032;-79
2024/02/17 01:38:08;;;;;;;24.60;12.80;;;;;;;2.39;100.00;101004.91;5029101;28;20033;-80
2024/02/17 01:40:34;;;;;;;23.52;12.05;;;;;;;2.64;100.00;101024.53;5027468;28;20037;-80
2024/02/17 01:43:00;;;;;;;21.73;12.98;;;;;;;2.74;100.00;101013.97;5027565;28;20065;-80
2024/02/17 01:45:26;;;;;;;24.05;13.38;;;;;;;2.77;100.00;101003.94;5027486;28;20041;-79
2024/02/17 01:47:54;;;;;;;25.92;12.80;;;;;;;2.78;100.00;101016.16;5028764;28;20049;-80
2024/02/17 01:50:20;;;;;;;23.02;13.38;;;;;;;2.77;100.00;101025.03;5028993;28;20052;-79
2024/02/17 01:52:46;;;;;;;23.38;13.95;;;;;;;2.57;100.00;100991.84;5028878;28;20405;-79
2024/02/17 01:55:13;;;;;;;26.35;14.18;;;;;;;2.68;100.00;101025.91;5027633;28;20576;-79
2024/02/17 01:57:39;;;;;;;23.67;13.32;;;;;;;2.77;100.00;101003.94;5028458;28;20033;-79
2024/02/17 02:00:07;;;;;;;21.73;13.10;;;;;;;2.91;100.00;101028.19;5028414;28;20025;-79
2024/02/17 02:02:32;;;;;;;55.88;24.60;;;;;;;2.75;100.00;101005.91;5028493;28;20827;-79
2024/02/17 02:04:58;;;;;;;68.28;28.67;;;;;;;2.89;100.00;100996.69;5028938;28;20116;-79
2024/02/17 02:07:26;;;;;;;52.53;23.27;;;;;;;3.00;100.00;101025.50;5028506;28;20032;-80
2024/02/17 02:09:51;;;;;;;46.78;22.17;;;;;;;2.76;100.00;101002.31;5028828;28;20036;-79
2024/02/17 02:12:18;;;;;;;39.67;18.23;;;;;;;2.80;100.00;101003.69;5044103;28;20037;-79
2024/02/17 02:14:43;;;;;;;33.03;16.88;;;;;;;2.74;100.00;101001.63;5048107;28;20131;-79
2024/02/17 02:17:08;;;;;;;33.95;16.48;;;;;;;2.70;100.00;100997.63;5045854;28;20055;-79
2024/02/17 02:19:34;;;;;;;32.38;15.93;;;;;;;2.49;100.00;100987.28;5028023;28;20068;-79
2024/02/17 02:21:59;;;;;;;37.65;15.15;;;;;;;2.54;100.00;100976.34;5030736;28;20021;-79
2024/02/17 02:24:25;;;;;;;32.85;16.10;;;;;;;2.07;100.00;100981.59;5026816;28;20036;-79
2024/02/17 02:26:50;;;;;;;37.58;18.48;;;;;;;2.32;100.00;101012.53;5026860;28;20021;-79
2024/02/17 02:29:15;;;;;;;31.65;16.38;;;;;;;1.71;100.00;101018.94;5028289;28;20037;-80
2024/02/17 02:31:41;;;;;;;31.38;15.48;;;;;;;1.84;100.00;100989.78;5027229;28;20033;-79
2024/02/17 02:34:06;;;;;;;26.83;13.15;;;;;;;2.36;100.00;101013.91;5028115;28;20148;-79
2024/02/17 02:36:32;;;;;;;32.22;16.63;;;;;;;1.38;100.00;100994.72;5026722;28;20056;-79
2024/02/17 02:38:57;;;;;;;27.75;14.82;;;;;;;1.39;100.00;101006.06;5026459;28;20406;-79
2024/02/17 02:41:22;;;;;;;23.80;12.75;;;;;;;1.17;100.00;101013.22;5026469;28;20029;-80
2024/02/17 02:43:49;;;;;;;22.58;11.65;;;;;;;1.17;100.00;101021.09;5027893;28;20060;-81
2024/02/17 02:46:14;;;;;;;18.88;11.45;;;;;;;1.17;100.00;101023.72;5027728;28;20030;-81
2024/02/17 02:48:40;;;;;;;21.17;11.07;;;;;;;1.12;100.00;101025.06;5026256;28;20793;-81
2024/02/17 02:51:05;;;;;;;26.85;12.85;;;;;;;1.64;100.00;101030.19;5026939;28;20022;-78
2024/02/17 02:53:31;;;;;;;21.25;12.27;;;;;;;1.29;100.00;100997.31;5027727;28;20044;-79
2024/02/17 02:55:56;;;;;;;21.50;12.05;;;;;;;1.38;100.00;101004.41;5026672;28;20029;-80
2024/02/17 02:58:22;;;;;;;27.05;13.52;;;;;;;2.00;100.00;100995.28;5026253;28;20468;-80
2024/02/17 03:00:48;;;;;;;24.38;13.27;;;;;;;2.01;100.00;101011.91;5027955;28;20029;-80
2024/02/17 03:03:13;;;;;;;21.60;12.48;;;;;;;2.08;100.00;101004.28;5025442;28;20033;-80
2024/02/17 03:05:38;;;;;;;22.58;11.32;;;;;;;2.01;100.00;101025.88;5026423;28;20593;-80
2024/02/17 03:08:05;;;;;;;24.65;12.20;;;;;;;2.03;100.00;101022.28;5026070;28;20104;-80
2024/02/17 03:10:30;;;;;;;21.58;11.65;;;;;;;2.20;100.00;101038.19;5027632;28;20033;-80
2024/02/17 03:12:56;;;;;;;23.17;11.57;;;;;;;1.94;100.00;101014.28;5027595;28;20426;-80
2024/02/17 03:15:21;;;;;;;28.48;12.35;;;;;;;1.22;100.00;101025.09;5027040;28;20053;-79
2024/02/17 03:17:50;;;;;;;50.35;23.70;;;;;;;0.83;100.00;101006.59;5026395;28;20030;-79
2024/02/17 03:20:15;;;;;;;31.65;15.40;;;;;;;0.71;100.00;101017.19;5007780;28;20038;-80
2024/02/17 03:22:41;;;;;;;32.03;15.38;;;;;;;0.82;100.00;101039.06;5022586;28;20041;-79
2024/02/17 03:25:06;;;;;;;28.02;14.93;;;;;;;0.63;100.00;101016.19;5027519;28;20041;-80
2024/02/17 03:27:34;;;;;;;27.13;14.65;;;;;;;0.71;100.00;101043.44;5026076;28;20021;-79
2024/02/17 03:30:00;;;;;;;29.20;14.20;;;;;;;0.73;100.00;101023.13;5027181;28;20067;-80
2024/02/17 03:32:26;;;;;;;25.48;12.85;;;;;;;1.38;100.00;101012.28;5025989;28;20037;-79
2024/02/17 03:34:51;;;;;;;25.40;13.20;;;;;;;1.32;100.00;101000.50;5027652;28;20080;-80
2024/02/17 03:37:18;;;;;;;23.63;13.25;;;;;;;1.39;100.00;101046.31;5027228;28;20079;-79
2024/02/17 03:39:45;;;;;;;27.23;13.77;;;;;;;1.12;100.00;101018.03;5025858;28;20072;-80
2024/02/17 03:42:11;;;;;;;23.92;11.60;;;;;;;1.30;100.00;101030.53;5027529;28;20482;-80
2024/02/17 03:44:36;;;;;;;23.88;12.43;;;;;;;1.65;100.00;101055.50;5027812;28;20072;-80
2024/02/17 03:47:01;;;;;;;22.95;11.65;;;;;;;1.47;100.00;101027.25;5026971;28;20804;-79
2024/02/17 03:49:27;;;;;;;25.98;12.88;;;;;;;0.85;100.00;101002.03;5025559;28;20050;-79
2024/02/17 03:51:52;;;;;;;24.20;11.40;;;;;;;0.47;100.00;101021.88;5025781;28;20072;-79
2024/02/17 03:54:18;;;;;;;22.00;12.23;;;;;;;0.23;100.00;101015.13;5025845;28;20542;-79
2024/02/17 03:56:43;;;;;;;28.80;14.82;;;;;;;0.71;100.00;101026.84;5026398;28;20053;-79
2024/02/17 03:59:09;;;;;;;24.67;14.50;;;;;;;0.55;100.00;101053.56;5027050;28;20474;-80
2024/02/17 04:01:37;;;;;;;27.40;14.55;;;;;;;0.48;100.00;101057.69;5028214;28;20033;-79
2024/02/17 04:04:04;;;;;;;27.17;15.73;;;;;;;0.89;100.00;101061.22;5030789;28;20128;-79
2024/02/17 04:06:32;;;;;;;36.78;18.10;;;;;;;0.44;100.00;101027.41;5029613;28;20022;-79
2024/02/17 04:08:58;;;;;;;34.20;18.13;;;;;;;0.33;100.00;101037.03;5029689;28;20040;-80
2024/02/17 04:11:27;;;;;;;40.33;19.38;;;;;;;0.00;100.00;101032.78;5029785;28;20035;-79
2024/02/17 04:13:53;;;;;;;42.17;20.05;;;;;;;0.53;100.00;101045.84;5030505;28;20068;-80
2024/02/17 04:16:19;;;;;;;59.03;24.02;;;;;;;0.84;100.00;101016.13;5030329;28;20089;-80
2024/02/17 04:18:45;;;;;;;51.05;22.20;;;;;;;0.21;100.00;101026.72;5031943;28;20021;-80
2024/02/17 04:21:10;;;;;;;42.60;19.98;;;;;;;0.01;100.00;101038.84;5050438;28;20029;-79
2024/02/17 04:23:35;;;;;;;41.78;17.05;;;;;;;0.29;100.00;101053.97;5036392;28;20032;-78
2024/02/17 04:26:03;;;;;;;42.53;18.20;;;;;;;0.60;100.00;101020.72;5030518;28;20029;-79
2024/02/17 04:28:28;;;;;;;36.03;20.85;;;;;;;0.87;100.00;101058.72;5029402;28;20084;-78
2024/02/17 04:30:54;;;;;;;35.53;20.15;;;;;;;0.19;100.00;101058.31;5030273;28;20921;-79
2024/02/17 04:33:19;;;;;;;43.72;21.38;;;;;;;-0.24;100.00;101051.34;5029688;28;20053;-79
2024/02/17 04:35:45;;;;;;;28.88;16.40;;;;;;;0.18;100.00;101040.91;5030528;28;20040;-79
2024/02/17 04:38:10;;;;;;;33.95;16.40;;;;;;;0.48;100.00;101062.94;5030060;28;20080;-80
2024/02/17 04:40:36;;;;;;;34.60;16.27;;;;;;;0.51;100.00;101044.28;5030108;28;20044;-80
2024/02/17 04:43:01;;;;;;;26.20;14.43;;;;;;;0.51;100.00;101063.53;5029773;28;20028;-79
2024/02/17 04:45:27;;;;;;;33.20;15.07;;;;;;;0.08;100.00;101068.84;5028991;28;20033;-80
2024/02/17 04:47:53;;;;;;;39.70;16.42;;;;;;;0.16;100.00;101042.81;5028309;28;20037;-79
2024/02/17 04:50:18;;;;;;;34.70;16.55;;;;;;;0.45;100.00;101079.78;5029919;28;20033;-79
2024/02/17 04:52:44;;;;;;;29.85;16.67;;;;;;;0.69;100.00;101071.59;5030068;28;20029;-78
2024/02/17 04:55:09;;;;;;;34.78;19.98;;;;;;;0.88;100.00;101065.66;5049828;28;20399;-80
2024/02/17 04:57:35;;;;;;;31.55;20.48;;;;;;;0.12;100.00;101068.50;5048674;28;20086;-80
2024/02/17 05:00:02;;;;;;;36.33;24.27;;;;;;;0.21;100.00;101090.50;5041678;28;20392;-80
2024/02/17 05:02:27;;;;;;;35.63;21.15;;;;;;;0.28;100.00;101078.53;5027558;28;20112;-80
2024/02/17 05:04:53;;;;;;;30.98;19.52;;;;;;;0.21;100.00;101066.91;5046558;28;20435;-80
2024/02/17 05:07:18;;;;;;;29.92;17.00;;;;;;;-0.16;100.00;101058.56;5049696;28;20059;-79
2024/02/17 05:09:44;;;;;;;26.65;14.98;;;;;;;-0.05;100.00;101069.84;5043790;28;20095;-79
2024/02/17 05:12:09;;;;;;;27.15;15.82;;;;;;;0.35;100.00;101063.97;5027908;28;20471;-79
2024/02/17 05:14:37;;;;;;;29.55;18.40;;;;;;;0.31;100.00;101083.53;5028032;28;20091;-80
2024/02/17 05:17:05;;;;;;;28.05;17.33;;;;;;;0.02;100.00;101077.22;5029819;28;20101;-80
2024/02/17 05:19:32;;;;;;;29.98;15.77;;;;;;;-0.03;100.00;101086.28;5029586;28;20041;-80
2024/02/17 05:21:58;;;;;;;29.98;17.63;;;;;;;0.36;100.00;101088.41;5028542;28;20108;-79
2024/02/17 05:24:24;;;;;;;35.38;20.67;;;;;;;0.76;100.00;101075.41;5030517;28;20124;-80
2024/02/17 05:26:49;;;;;;;75.78;62.15;;;;;;;0.68;100.00;101093.59;5032884;28;20029;-80
2024/02/17 05:29:15;;;;;;;36.35;22.80;;;;;;;0.32;100.00;101087.81;5048447;28;20035;-80
2024/02/17 05:31:40;;;;;;;26.85;15.52;;;;;;;0.36;100.00;101110.22;5031518;28;20033;-80
2024/02/17 05:34:06;;;;;;;32.28;18.65;;;;;;;0.86;100.00;101119.25;5038796;28;20029;-80
2024/02/17 05:36:31;;;;;;;32.13;19.42;;;;;;;0.14;100.00;101097.19;5049221;28;20032;-79
2024/02/17 05:38:57;;;;;;;34.10;21.38;;;;;;;0.23;100.00;101099.09;5055120;28;20162;-80
2024/02/17 05:41:23;;;;;;;32.08;20.25;;;;;;;0.33;100.00;101123.59;5042212;28;20025;-80
2024/02/17 05:43:48;;;;;;;39.88;21.38;;;;;;;0.17;100.00;101115.31;5041246;28;20026;-80
2024/02/17 05:46:13;;;;;;;50.83;27.10;;;;;;;-0.13;100.00;101079.31;5037539;28;20487;-80
2024/02/17 05:48:39;;;;;;;43.85;24.83;;;;;;;-0.18;100.00;101084.94;5038451;28;20033;-80
2024/02/17 05:51:04;;;;;;;35.03;19.58;;;;;;;-0.17;100.00;101104.13;5037522;28;20037;-80
2024/02/17 05:53:30;;;;;;;33.47;18.88;;;;;;;-0.19;100.00;101106.84;5041119;28;20043;-80
2024/02/17 05:55:56;;;;;;;30.25;16.48;;;;;;;-0.18;100.00;101108.53;5039891;28;20036;-81
2024/02/17 05:58:22;;;;;;;30.15;15.40;;;;;;;-0.16;100.00;101127.59;5036619;28;20554;-80
2024/02/17 06:00:47;;;;;;;25.63;13.48;;;;;;;-0.11;100.00;101141.16;5035402;28;20041;-79
2024/02/17 06:03:14;;;;;;;24.88;13.38;;;;;;;0.04;100.00;101127.75;5035693;28;20029;-79
2024/02/17 06:05:40;;;;;;;22.80;12.80;;;;;;;0.55;100.00;101111.31;5034925;28;20038;-79
2024/02/17 06:08:05;;;;;;;24.85;14.95;;;;;;;0.67;100.00;101123.41;5033082;28;20037;-79
2024/02/17 06:10:31;;;;;;;22.75;13.68;;;;;;;0.33;100.00;101114.91;5032089;28;20030;-79
2024/02/17 06:12:56;;;;;;;18.35;11.57;;;;;;;0.29;100.00;101124.00;5030328;28;20029;-80
2024/02/17 06:15:21;;;;;;;18.60;12.38;;;;;;;0.58;100.00;101137.31;5030373;28;20053;-79
2024/02/17 06:21:10;;;;;;;22.85;14.15;;;;;;;0.97;100.00;101137.56;5029549;28;20472;-80
2024/02/17 06:23:24;;;;;;;59.78;31.73;;;;;;;1.40;100.00;101121.56;5045111;28;20059;-80
2024/02/17 06:25:50;;;;;;;83.20;30.30;;;;;;;1.47;100.00;101139.44;5044649;28;20115;-80
2024/02/17 06:28:15;;;;;;;56.38;24.25;;;;;;;1.53;100.00;101129.25;5048514;28;20137;-80
2024/02/17 06:30:41;;;;;;;44.55;21.35;;;;;;;1.71;100.00;101134.66;5042859;28;20087;-79
2024/02/17 06:33:06;;;;;;;42.78;21.42;;;;;;;1.99;100.00;101150.66;5028366;28;20466;-79
2024/02/17 06:35:31;;;;;;;47.47;23.63;;;;;;;1.90;100.00;101147.03;5026459;28;20037;-80
2024/02/17 06:37:57;;;;;;;50.15;23.98;;;;;;;1.94;100.00;101116.88;5026875;28;20033;-79
2024/02/17 06:40:22;;;;;;;66.30;23.40;;;;;;;1.87;100.00;101128.06;5027030;28;20486;-79
2024/02/17 06:42:48;;;;;;;48.03;22.35;;;;;;;2.15;100.00;101113.28;5027384;28;20045;-79
2024/02/17 06:45:16;;;;;;;64.70;29.33;;;;;;;2.31;100.00;101136.38;5023002;28;20446;-80
2024/02/17 06:47:42;;;;;;;71.68;28.02;;;;;;;2.31;100.00;101150.41;5037929;28;20044;-80
2024/02/17 06:50:10;;;;;;;60.20;23.75;;;;;;;2.50;100.00;101138.22;5046232;28;20640;-80
2024/02/17 06:52:36;;;;;;;63.70;22.38;;;;;;;2.80;100.00;101155.66;5034574;28;20108;-80
2024/02/17 06:55:01;;;;;;;53.35;21.92;;;;;;;2.38;100.00;101132.25;5034281;28;20179;-80
2024/02/17 06:57:26;;;;;;;46.55;20.80;;;;;;;2.39;100.00;101129.50;5026522;28;20033;-80
2024/02/17 06:59:52;;;;;;;58.90;27.13;;;;;;;2.71;100.00;101130.97;5042833;28;20025;-80
2024/02/17 07:02:22;;;;;;;74.50;38.90;;;;;;;3.17;100.00;101157.50;5031983;28;20112;-79
2024/02/17 07:04:51;;;;;;;53.15;27.17;;;;;;;2.94;100.00;101141.16;5026263;28;20021;-79
2024/02/17 07:07:17;;;;;;;71.05;27.75;;;;;;;3.18;100.00;101135.41;5026464;28;20033;-80
2024/02/17 07:09:43;;;;;;;73.00;32.75;;;;;;;3.42;100.00;101142.81;5027243;28;20412;-78
2024/02/17 07:12:09;;;;;;;70.63;31.63;;;;;;;3.70;100.00;101158.63;5027715;28;20033;-80
2024/02/17 07:14:34;;;;;;;56.85;25.90;;;;;;;3.78;100.00;101164.88;5031584;28;20064;-80
2024/02/17 07:17:00;;;;;;;54.85;23.67;;;;;;;3.50;100.00;101148.19;5046184;28;20021;-78
2024/02/17 07:19:26;;;;;;;47.70;22.55;;;;;;;3.64;100.00;101154.81;5045933;28;20033;-79
2024/02/17 07:21:52;;;;;;;42.65;22.63;;;;;;;3.85;100.00;101130.78;5039107;28;20033;-79
2024/02/17 07:24:17;;;;;;;42.97;21.67;;;;;;;3.85;100.00;101151.06;5026725;28;20144;-80
2024/02/17 07:26:43;;;;;;;42.13;19.58;;;;;;;3.83;100.00;101143.31;5027926;28;20491;-80
2024/02/17 07:29:10;;;;;;;37.80;18.80;;;;;;;3.99;100.00;101138.19;5027366;28;20033;-80
2024/02/17 07:31:42;;;;;;;41.25;19.88;;;;;;;4.36;100.00;101155.72;5027000;28;20040;-79
2024/02/17 07:34:08;;;;;;;42.60;19.90;;;;;;;4.31;100.00;101150.06;5026485;28;20120;-79
2024/02/17 07:36:34;;;;;;;38.08;19.55;;;;;;;4.15;100.00;101157.84;5030978;28;20045;-79
2024/02/17 07:38:59;;;;;;;36.78;20.15;;;;;;;4.41;100.00;101121.75;5031349;28;20021;-79
2024/02/17 07:41:26;;;;;;;36.95;20.10;;;;;;;4.97;100.00;101142.63;5029666;28;20120;-80
2024/02/17 07:43:52;;;;;;;39.05;19.90;;;;;;;5.09;100.00;101148.47;5031354;28;20070;-79
2024/02/17 07:46:18;;;;;;;38.03;19.98;;;;;;;5.14;100.00;101144.38;5043572;28;20033;-79
2024/02/17 07:48:45;;;;;;;32.97;18.20;;;;;;;10.16;78.00;101165.16;5050908;28;20021;-79
2024/02/17 07:51:10;;;;;;;29.77;17.13;;;;;;;7.82;82.59;101156.25;5051020;28;20025;-80
2024/02/17 07:53:35;;;;;;;29.40;16.55;;;;;;;7.07;88.87;101166.47;5030093;28;20448;-80
2024/02/17 07:56:01;;;;;;;31.17;18.92;;;;;;;8.24;95.77;101155.00;5029597;28;20036;-80
2024/02/17 07:58:26;;;;;;;27.42;16.73;;;;;;;10.48;72.09;101171.84;5031013;28;20033;-80
2024/02/17 08:00:51;;;;;;;31.00;19.27;;;;;;;10.44;70.28;101179.41;5030847;28;20757;-80
2024/02/17 08:03:18;;;;;;;29.63;16.42;;;;;;;8.71;74.96;101158.50;5030622;28;20037;-80
2024/02/17 08:05:43;;;;;;;28.40;17.25;;;;;;;8.31;80.98;101167.59;5026064;28;20105;-80
2024/02/17 08:08:08;;;;;;;37.65;18.85;;;;;;;8.06;81.93;101165.09;5010935;28;20447;-80
2024/02/17 08:10:34;;;;;;;31.13;17.85;;;;;;;7.85;79.98;101157.75;5011056;28;20029;-79
2024/02/17 08:12:59;;;;;;;31.40;18.90;;;;;;;8.02;84.43;101179.72;5023393;28;20458;-80
2024/02/17 08:15:25;;;;;;;47.33;26.42;;;;;;;8.31;82.41;101162.28;5030375;28;21371;-80
2024/02/17 08:17:50;;;;;;;34.42;22.23;;;;;;;9.09;78.25;101155.78;5029320;28;20029;-80
2024/02/17 08:20:16;;;;;;;28.33;16.30;;;;;;;8.43;81.05;101167.03;5030624;28;20574;-80
2024/02/17 08:22:41;;;;;;;31.15;18.40;;;;;;;8.52;79.79;101143.88;5030819;28;20029;-79
2024/02/17 08:25:09;;;;;;;30.38;19.08;;;;;;;8.77;79.62;101173.75;5029075;28;20033;-81
2024/02/17 08:27:35;;;;;;;31.05;18.98;;;;;;;8.68;79.51;101174.81;5030682;28;20029;-79
2024/02/17 08:30:02;;;;;;;31.77;19.40;;;;;;;9.07;76.34;101179.09;5028807;28;20483;-79
2024/02/17 08:32:27;;;;;;;37.40;24.27;;;;;;;9.44;73.93;101174.75;5030148;28;20711;-79
2024/02/17 08:34:52;;;;;;;29.40;20.05;;;;;;;9.02;76.19;101176.16;5029871;28;20112;-79
2024/02/17 08:37:18;;;;;;;64.53;57.78;;;;;;;9.13;75.86;101194.34;5028977;28;20025;-79
2024/02/17 08:39:48;;;;;;;30.38;20.17;;;;;;;9.58;76.67;101183.72;5030303;28;20026;-80
2024/02/17 08:42:13;;;;;;;32.33;20.60;;;;;;;12.25;67.39;101162.59;5029921;28;20017;-79
2024/02/17 08:44:39;;;;;;;29.67;19.77;;;;;;;12.21;61.10;101196.13;5028827;28;20873;-79
2024/02/17 08:47:04;;;;;;;65.75;48.08;;;;;;;12.36;62.20;101196.78;5027747;28;20065;-79
2024/02/17 08:49:30;;;;;;;30.85;20.38;;;;;;;12.76;61.60;101191.47;5030467;28;20037;-79
2024/02/17 08:51:55;;;;;;;32.35;19.63;;;;;;;12.93;57.73;101218.63;5029923;28;20025;-80
2024/02/17 08:54:25;;;;;;;31.48;20.60;;;;;;;12.31;61.93;101215.28;5010742;28;20038;-80
2024/02/17 08:56:50;;;;;;;28.10;18.70;;;;;;;13.80;59.44;101186.34;5045585;28;20029;-79
2024/02/17 08:59:16;;;;;;;27.58;19.27;;;;;;;14.08;57.28;101204.81;5010222;28;20655;-80
2024/02/17 09:01:41;;;;;;;52.45;37.53;;;;;;;12.74;61.23;101198.88;5010035;28;20095;-80
2024/02/17 09:04:07;;;;;;;41.25;31.15;;;;;;;13.50;58.63;101205.63;5026114;28;20125;-80
2024/02/17 09:06:33;;;;;;;64.72;46.03;;;;;;;13.89;55.22;101200.34;5028292;28;20574;-79
2024/02/17 09:08:58;;;;;;;37.65;27.17;;;;;;;13.36;59.20;101190.59;5028377;28;20040;-79
2024/02/17 09:11:24;;;;;;;32.33;20.45;;;;;;;12.60;58.69;101213.28;5029776;28;20021;-79
2024/02/17 09:13:50;;;;;;;30.38;20.70;;;;;;;13.52;60.33;101208.09;5029406;28;20560;-79
2024/02/17 09:16:16;;;;;;;29.38;20.25;;;;;;;12.94;57.28;101187.34;5028701;28;20049;-79
2024/02/17 09:18:41;;;;;;;36.20;26.35;;;;;;;12.20;59.00;101202.50;5027563;28;20494;-79
2024/02/17 09:21:07;;;;;;;39.38;29.75;;;;;;;11.60;64.45;101203.03;5028064;28;20049;-79
2024/02/17 09:23:32;;;;;;;30.95;19.55;;;;;;;15.13;53.67;101206.97;5027853;28;20164;-79
2024/02/17 09:25:58;;;;;;;28.17;20.38;;;;;;;14.06;57.37;101196.97;5026552;28;20026;-79
2024/02/17 09:28:23;;;;;;;33.25;22.23;;;;;;;14.76;52.12;101189.94;5026875;28;20026;-79
2024/02/17 09:30:49;;;;;;;38.95;23.42;;;;;;;14.58;51.59;101202.22;5059735;28;20033;-80
2024/02/17 09:33:14;;;;;;;36.40;24.10;;;;;;;13.64;56.48;101193.81;5029460;28;20036;-79
2024/02/17 09:35:40;;;;;;;28.83;21.13;;;;;;;13.34;56.74;101149.81;5028730;28;20025;-79
2024/02/17 09:38:05;;;;;;;29.52;20.30;;;;;;;14.10;53.47;101188.47;5031835;28;20029;-78
2024/02/17 09:40:30;;;;;;;32.63;20.67;;;;;;;13.66;54.73;101181.03;5029456;28;20392;-79
2024/02/17 09:42:56;;;;;;;31.25;21.90;;;;;;;15.03;52.78;101185.97;5028709;28;20576;-79
2024/02/17 09:45:23;;;;;;;32.90;23.83;;;;;;;14.52;53.75;101170.06;5029512;28;20025;-78
2024/02/17 09:47:50;;;;;;;33.63;22.83;;;;;;;12.57;59.53;101157.50;5029127;28;20033;-78
2024/02/17 09:50:17;;;;;;;34.80;24.80;;;;;;;14.70;53.13;101197.00;5029408;28;20057;-78
2024/02/17 09:52:48;;;;;;;36.53;23.42;;;;;;;14.26;54.73;101188.81;5028683;28;20448;-78
2024/02/17 09:55:14;;;;;;;31.17;22.05;;;;;;;13.42;57.23;101168.31;5029150;28;20136;-78
2024/02/17 09:57:40;;;;;;;31.05;21.65;;;;;;;14.36;55.08;101174.06;5028124;28;20033;-79
2024/02/17 10:00:08;;;;;;;27.65;18.45;;;;;;;14.56;54.36;101171.28;5028869;28;20082;-79
2024/02/17 10:02:34;;;;;;;26.77;19.20;;;;;;;15.56;51.70;101154.19;5028726;28;20064;-79
2024/02/17 10:04:59;;;;;;;31.63;21.70;;;;;;;15.04;53.06;101165.31;5028377;28;20061;-79
2024/02/17 10:07:24;;;;;;;22.33;15.02;;;;;;;13.68;54.75;101142.47;5028167;28;20065;-79
2024/02/17 10:09:50;;;;;;;22.30;16.20;;;;;;;14.20;53.88;101170.03;5028579;28;20034;-79
2024/02/17 10:12:17;;;;;;;23.15;16.30;;;;;;;14.73;55.01;101156.28;5028519;28;20037;-79
2024/02/17 10:14:43;;;;;;;35.30;18.52;;;;;;;13.71;55.20;101166.16;5028084;28;20122;-78
2024/02/17 10:17:11;;;;;;;24.30;17.90;;;;;;;13.49;57.33;101163.78;5028633;28;20025;-79
2024/02/17 10:19:40;;;;;;;30.02;18.20;;;;;;;14.95;52.62;101139.75;5028486;28;20549;-79
2024/02/17 10:22:06;;;;;;;27.52;18.77;;;;;;;14.04;54.43;101142.72;5028080;28;20519;-79
2024/02/17 10:24:31;;;;;;;24.20;16.25;;;;;;;14.76;56.52;101137.03;5019218;28;20036;-79
2024/02/17 10:26:57;;;;;;;23.48;16.70;;;;;;;14.34;53.01;101136.72;5014819;28;20037;-78
2024/02/17 10:29:23;;;;;;;25.80;18.52;;;;;;;14.40;54.32;101153.81;5041161;28;20029;-78
2024/02/17 10:31:49;;;;;;;23.88;15.48;;;;;;;13.73;56.87;101139.97;5036904;28;20136;-79
2024/02/17 10:34:15;;;;;;;22.23;14.27;;;;;;;15.07;54.66;101116.50;5028442;28;20123;-78
2024/02/17 10:36:42;;;;;;;25.30;16.10;;;;;;;13.43;59.50;101148.56;5027976;28;20044;-78
2024/02/17 10:39:07;;;;;;;22.60;15.63;;;;;;;13.49;58.93;101137.00;5027685;28;20526;-78
2024/02/17 10:41:34;;;;;;;23.60;14.45;;;;;;;13.60;55.66;101138.19;5028034;28;20032;-78
2024/02/17 10:44:03;;;;;;;24.92;15.52;;;;;;;13.31;58.66;101126.13;5026107;28;20040;-79
2024/02/17 10:46:31;;;;;;;23.13;16.80;;;;;;;15.12;54.20;101142.69;5027930;28;20033;-78
2024/02/17 10:49:16;;;;;;;;;;;;;;;15.16;52.68;101135.81;5030878;28;20037;-79
2024/02/17 10:52:18;;;;;;;19.85;13.02;;;;;;;14.64;54.45;101101.22;5027353;28;19909;-78
2024/02/17 10:54:56;;;;;;;22.15;15.55;;;;;;;14.73;52.73;101116.03;5022238;28;20116;-79
2024/02/17 10:57:22;;;;;;;19.75;14.00;;;;;;;13.32;57.79;101109.00;5026723;28;20037;-78
2024/02/17 10:59:51;;;;;;;21.23;13.52;;;;;;;13.44;57.47;101126.06;5027219;28;20518;-80
2024/02/17 11:02:19;;;;;;;23.10;14.63;;;;;;;13.84;55.53;101117.84;5017513;28;20026;-79
2024/02/17 11:04:45;;;;;;;24.02;14.25;;;;;;;14.96;54.26;101117.25;5016730;28;20565;-79
2024/02/17 11:07:11;;;;;;;24.05;18.42;;;;;;;15.31;51.43;101106.72;5027263;28;20033;-78